sensor_id;sensor_type;location;lat;lon;timestamp;pressure;altitude;pressure_sealevel;temperature;humidity
76815;BME280;65768;49.906;19.384;2023-06-22T00:01:24;98425.11;;;21.36;70.80
76815;BME280;65768;49.906;19.384;2023-06-22T00:03:52;98417.50;;;21.40;70.96
76815;BME280;65768;49.906;19.384;2023-06-22T00:06:20;98424.20;;;21.41;70.78
76815;BME280;65768;49.906;19.384;2023-06-22T00:08:48;98425.09;;;21.41;70.71
76815;BME280;65768;49.906;19.384;2023-06-22T00:11:16;98433.73;;;21.37;71.57
76815;BME280;65768;49.906;19.384;2023-06-22T00:13:44;98440.20;;;21.40;71.72
76815;BME280;65768;49.906;19.384;2023-06-22T00:16:13;98437.66;;;21.46;71.29
76815;BME280;65768;49.906;19.384;2023-06-22T00:18:41;98438.17;;;21.14;72.28
76815;BME280;65768;49.906;19.384;2023-06-22T00:21:14;98435.47;;;21.01;72.33
76815;BME280;65768;49.906;19.384;2023-06-22T00:23:42;98438.57;;;21.08;72.12
76815;BME280;65768;49.906;19.384;2023-06-22T00:26:11;98436.36;;;21.15;72.19
76815;BME280;65768;49.906;19.384;2023-06-22T00:28:39;98436.02;;;21.24;72.02
76815;BME280;65768;49.906;19.384;2023-06-22T00:31:07;98438.16;;;21.32;72.17
76815;BME280;65768;49.906;19.384;2023-06-22T00:33:35;98431.03;;;21.38;72.23
76815;BME280;65768;49.906;19.384;2023-06-22T00:36:04;98434.31;;;21.45;71.69
76815;BME280;65768;49.906;19.384;2023-06-22T00:38:33;98431.60;;;21.50;71.53
76815;BME280;65768;49.906;19.384;2023-06-22T00:41:01;98430.96;;;21.54;71.79
76815;BME280;65768;49.906;19.384;2023-06-22T00:43:30;98425.16;;;21.52;71.38
76815;BME280;65768;49.906;19.384;2023-06-22T00:45:58;98425.27;;;21.49;71.60
76815;BME280;65768;49.906;19.384;2023-06-22T00:48:27;98423.88;;;21.49;71.72
76815;BME280;65768;49.906;19.384;2023-06-22T00:50:55;98423.45;;;21.50;71.57
76815;BME280;65768;49.906;19.384;2023-06-22T00:53:23;98419.38;;;21.55;71.33
76815;BME280;65768;49.906;19.384;2023-06-22T00:55:51;98418.84;;;21.55;71.23
76815;BME280;65768;49.906;19.384;2023-06-22T00:58:22;98413.70;;;21.55;71.12
76815;BME280;65768;49.906;19.384;2023-06-22T01:00:51;98417.66;;;21.58;71.60
76815;BME280;65768;49.906;19.384;2023-06-22T01:03:19;98423.84;;;21.54;71.17
76815;BME280;65768;49.906;19.384;2023-06-22T01:05:49;98422.95;;;21.50;71.41
76815;BME280;65768;49.906;19.384;2023-06-22T01:08:32;98419.17;;;21.46;71.66
76815;BME280;65768;49.906;19.384;2023-06-22T01:11:12;98412.32;;;21.45;71.94
76815;BME280;65768;49.906;19.384;2023-06-22T01:14:02;98411.57;;;21.50;71.88
76815;BME280;65768;49.906;19.384;2023-06-22T01:16:38;98413.33;;;21.50;71.80
76815;BME280;65768;49.906;19.384;2023-06-22T01:19:55;98408.92;;;21.41;71.88
76815;BME280;65768;49.906;19.384;2023-06-22T01:22:16;98411.52;;;21.39;72.19
76815;BME280;65768;49.906;19.384;2023-06-22T01:27:48;98407.09;;;21.38;72.25
76815;BME280;65768;49.906;19.384;2023-06-22T01:30:20;98401.26;;;21.38;72.23
76815;BME280;65768;49.906;19.384;2023-06-22T01:32:49;98398.82;;;21.36;72.36
76815;BME280;65768;49.906;19.384;2023-06-22T01:35:19;98401.14;;;21.37;72.53
76815;BME280;65768;49.906;19.384;2023-06-22T01:37:48;98398.52;;;21.35;72.75
76815;BME280;65768;49.906;19.384;2023-06-22T01:40:18;98404.48;;;21.37;72.75
76815;BME280;65768;49.906;19.384;2023-06-22T01:42:48;98407.55;;;21.40;72.70
76815;BME280;65768;49.906;19.384;2023-06-22T01:45:17;98404.54;;;21.40;72.69
76815;BME280;65768;49.906;19.384;2023-06-22T01:47:46;98409.61;;;21.42;72.91
76815;BME280;65768;49.906;19.384;2023-06-22T01:50:15;98414.19;;;21.42;72.59
76815;BME280;65768;49.906;19.384;2023-06-22T01:52:43;98415.97;;;21.43;72.81
76815;BME280;65768;49.906;19.384;2023-06-22T01:55:11;98415.59;;;21.39;72.76
76815;BME280;65768;49.906;19.384;2023-06-22T01:57:40;98412.84;;;21.37;72.87
76815;BME280;65768;49.906;19.384;2023-06-22T02:03:38;98413.77;;;21.40;72.75
76815;BME280;65768;49.906;19.384;2023-06-22T02:06:23;98411.92;;;21.37;72.83
76815;BME280;65768;49.906;19.384;2023-06-22T02:08:59;98414.66;;;21.40;72.79
76815;BME280;65768;49.906;19.384;2023-06-22T02:11:30;98418.52;;;21.41;72.67
76815;BME280;65768;49.906;19.384;2023-06-22T02:13:59;98417.60;;;21.38;72.81
76815;BME280;65768;49.906;19.384;2023-06-22T02:16:27;98412.31;;;21.37;72.70
76815;BME280;65768;49.906;19.384;2023-06-22T02:19:01;98412.90;;;21.35;72.71
76815;BME280;65768;49.906;19.384;2023-06-22T02:21:30;98414.75;;;21.37;72.26
76815;BME280;65768;49.906;19.384;2023-06-22T02:23:59;98415.77;;;21.29;72.59
76815;BME280;65768;49.906;19.384;2023-06-22T02:26:27;98421.66;;;21.23;72.79
76815;BME280;65768;49.906;19.384;2023-06-22T02:28:55;98421.49;;;21.19;73.17
76815;BME280;65768;49.906;19.384;2023-06-22T02:31:24;98427.73;;;21.18;73.27
76815;BME280;65768;49.906;19.384;2023-06-22T02:33:58;98430.71;;;21.18;73.02
76815;BME280;65768;49.906;19.384;2023-06-22T02:36:26;98439.69;;;21.20;73.14
76815;BME280;65768;49.906;19.384;2023-06-22T02:38:56;98443.67;;;21.18;72.93
76815;BME280;65768;49.906;19.384;2023-06-22T02:41:27;98443.33;;;21.18;73.17
76815;BME280;65768;49.906;19.384;2023-06-22T02:43:55;98445.56;;;21.15;73.06
76815;BME280;65768;49.906;19.384;2023-06-22T02:46:24;98450.98;;;21.12;72.97
76815;BME280;65768;49.906;19.384;2023-06-22T02:48:52;98452.64;;;21.06;73.09
76815;BME280;65768;49.906;19.384;2023-06-22T02:51:20;98455.96;;;20.98;73.32
76815;BME280;65768;49.906;19.384;2023-06-22T02:53:48;98455.61;;;20.98;73.78
76815;BME280;65768;49.906;19.384;2023-06-22T02:56:20;98453.11;;;20.98;73.34
76815;BME280;65768;49.906;19.384;2023-06-22T02:58:52;98460.02;;;21.03;73.42
76815;BME280;65768;49.906;19.384;2023-06-22T03:01:20;98463.52;;;21.05;73.44
76815;BME280;65768;49.906;19.384;2023-06-22T03:03:51;98464.94;;;21.10;73.39
76815;BME280;65768;49.906;19.384;2023-06-22T03:06:21;98466.96;;;21.12;73.19
76815;BME280;65768;49.906;19.384;2023-06-22T03:08:51;98464.71;;;21.15;73.59
76815;BME280;65768;49.906;19.384;2023-06-22T03:11:19;98460.36;;;21.13;73.17
76815;BME280;65768;49.906;19.384;2023-06-22T03:13:47;98466.22;;;21.08;73.55
76815;BME280;65768;49.906;19.384;2023-06-22T03:16:15;98466.59;;;21.03;73.44
76815;BME280;65768;49.906;19.384;2023-06-22T03:18:44;98472.69;;;20.97;73.59
76815;BME280;65768;49.906;19.384;2023-06-22T03:21:12;98470.77;;;20.95;73.61
76815;BME280;65768;49.906;19.384;2023-06-22T03:23:41;98472.73;;;20.95;74.03
76815;BME280;65768;49.906;19.384;2023-06-22T03:26:10;98481.29;;;20.99;73.87
76815;BME280;65768;49.906;19.384;2023-06-22T03:28:39;98485.48;;;21.05;73.98
76815;BME280;65768;49.906;19.384;2023-06-22T03:31:07;98490.18;;;21.12;74.06
76815;BME280;65768;49.906;19.384;2023-06-22T03:33:36;98491.70;;;21.15;74.13
76815;BME280;65768;49.906;19.384;2023-06-22T03:36:04;98493.86;;;21.18;73.75
76815;BME280;65768;49.906;19.384;2023-06-22T03:38:32;98496.98;;;21.20;73.56
76815;BME280;65768;49.906;19.384;2023-06-22T03:41:01;98495.78;;;21.23;73.82
76815;BME280;65768;49.906;19.384;2023-06-22T03:43:29;98496.56;;;21.31;73.97
76815;BME280;65768;49.906;19.384;2023-06-22T03:45:57;98499.02;;;21.42;73.41
76815;BME280;65768;49.906;19.384;2023-06-22T03:48:25;98498.33;;;21.55;73.08
76815;BME280;65768;49.906;19.384;2023-06-22T03:50:53;98492.09;;;21.64;72.67
76815;BME280;65768;49.906;19.384;2023-06-22T03:53:21;98489.30;;;21.76;72.75
76815;BME280;65768;49.906;19.384;2023-06-22T03:55:53;98485.51;;;21.86;72.44
76815;BME280;65768;49.906;19.384;2023-06-22T03:58:21;98489.08;;;21.99;72.19
76815;BME280;65768;49.906;19.384;2023-06-22T04:00:50;98492.83;;;22.16;71.66
76815;BME280;65768;49.906;19.384;2023-06-22T04:03:19;98497.11;;;22.37;71.35
76815;BME280;65768;49.906;19.384;2023-06-22T04:05:47;98504.52;;;22.55;70.81
76815;BME280;65768;49.906;19.384;2023-06-22T04:08:16;98507.42;;;22.57;70.41
76815;BME280;65768;49.906;19.384;2023-06-22T04:10:44;98507.23;;;22.53;70.36
76815;BME280;65768;49.906;19.384;2023-06-22T04:13:13;98508.06;;;22.58;70.28
76815;BME280;65768;49.906;19.384;2023-06-22T04:15:41;98505.52;;;22.64;69.94
76815;BME280;65768;49.906;19.384;2023-06-22T04:18:09;98506.98;;;22.59;70.16
76815;BME280;65768;49.906;19.384;2023-06-22T04:20:37;98506.23;;;22.64;70.05
76815;BME280;65768;49.906;19.384;2023-06-22T04:23:05;98506.31;;;22.70;69.68
76815;BME280;65768;49.906;19.384;2023-06-22T04:25:33;98511.95;;;22.72;69.71
76815;BME280;65768;49.906;19.384;2023-06-22T04:28:01;98513.36;;;22.68;69.83
76815;BME280;65768;49.906;19.384;2023-06-22T04:30:33;98515.85;;;22.71;69.62
76815;BME280;65768;49.906;19.384;2023-06-22T04:33:01;98513.23;;;22.78;69.55
76815;BME280;65768;49.906;19.384;2023-06-22T04:35:29;98514.57;;;22.68;69.77
76815;BME280;65768;49.906;19.384;2023-06-22T04:37:58;98513.13;;;22.85;69.58
76815;BME280;65768;49.906;19.384;2023-06-22T04:40:26;98515.73;;;22.82;69.43
76815;BME280;65768;49.906;19.384;2023-06-22T04:42:54;98513.82;;;22.74;69.93
76815;BME280;65768;49.906;19.384;2023-06-22T04:45:23;98508.64;;;23.06;68.98
76815;BME280;65768;49.906;19.384;2023-06-22T04:47:51;98506.06;;;23.27;68.78
76815;BME280;65768;49.906;19.384;2023-06-22T04:50:19;98502.93;;;23.34;68.40
76815;BME280;65768;49.906;19.384;2023-06-22T04:52:49;98511.93;;;23.43;67.97
76815;BME280;65768;49.906;19.384;2023-06-22T04:55:19;98516.10;;;23.45;68.11
76815;BME280;65768;49.906;19.384;2023-06-22T04:57:48;98517.52;;;23.37;68.18
76815;BME280;65768;49.906;19.384;2023-06-22T05:00:18;98517.92;;;23.32;67.89
76815;BME280;65768;49.906;19.384;2023-06-22T05:02:47;98523.29;;;23.47;67.46
76815;BME280;65768;49.906;19.384;2023-06-22T05:05:17;98524.09;;;23.57;67.27
76815;BME280;65768;49.906;19.384;2023-06-22T05:07:46;98518.91;;;23.64;67.12
76815;BME280;65768;49.906;19.384;2023-06-22T05:10:16;98518.98;;;23.89;66.63
76815;BME280;65768;49.906;19.384;2023-06-22T05:12:44;98522.42;;;24.03;65.84
76815;BME280;65768;49.906;19.384;2023-06-22T05:15:12;98520.98;;;24.03;65.31
76815;BME280;65768;49.906;19.384;2023-06-22T05:17:40;98530.02;;;24.15;65.33
76815;BME280;65768;49.906;19.384;2023-06-22T05:20:12;98533.13;;;24.17;65.04
76815;BME280;65768;49.906;19.384;2023-06-22T05:22:40;98532.66;;;24.19;65.31
76815;BME280;65768;49.906;19.384;2023-06-22T05:25:09;98537.05;;;24.24;65.25
76815;BME280;65768;49.906;19.384;2023-06-22T05:27:38;98539.88;;;24.42;65.16
76815;BME280;65768;49.906;19.384;2023-06-22T05:30:08;98542.67;;;24.72;64.42
76815;BME280;65768;49.906;19.384;2023-06-22T05:32:36;98544.38;;;24.16;65.10
76815;BME280;65768;49.906;19.384;2023-06-22T05:35:04;98545.55;;;24.36;65.04
76815;BME280;65768;49.906;19.384;2023-06-22T05:37:33;98546.71;;;24.30;65.46
76815;BME280;65768;49.906;19.384;2023-06-22T05:40:01;98543.91;;;24.79;64.24
76815;BME280;65768;49.906;19.384;2023-06-22T05:42:30;98547.07;;;25.20;63.69
76815;BME280;65768;49.906;19.384;2023-06-22T05:44:58;98544.14;;;25.19;63.36
76815;BME280;65768;49.906;19.384;2023-06-22T05:47:26;98544.70;;;24.94;63.82
76815;BME280;65768;49.906;19.384;2023-06-22T05:49:54;98550.53;;;24.68;64.96
76815;BME280;65768;49.906;19.384;2023-06-22T05:52:23;98550.93;;;24.84;64.67
76815;BME280;65768;49.906;19.384;2023-06-22T05:54:51;98555.91;;;25.25;64.12
76815;BME280;65768;49.906;19.384;2023-06-22T05:57:19;98562.89;;;25.58;63.67
76815;BME280;65768;49.906;19.384;2023-06-22T05:59:49;98567.89;;;25.48;63.80
76815;BME280;65768;49.906;19.384;2023-06-22T06:02:17;98570.27;;;25.40;63.85
76815;BME280;65768;49.906;19.384;2023-06-22T06:04:45;98571.38;;;25.56;63.50
76815;BME280;65768;49.906;19.384;2023-06-22T06:07:13;98570.80;;;25.77;62.86
76815;BME280;65768;49.906;19.384;2023-06-22T06:09:41;98578.96;;;26.34;61.87
76815;BME280;65768;49.906;19.384;2023-06-22T06:12:09;98580.04;;;26.77;60.87
76815;BME280;65768;49.906;19.384;2023-06-22T06:14:38;98579.54;;;27.09;60.01
76815;BME280;65768;49.906;19.384;2023-06-22T06:17:06;98571.35;;;27.35;58.93
76815;BME280;65768;49.906;19.384;2023-06-22T06:19:34;98569.02;;;27.55;58.13
76815;BME280;65768;49.906;19.384;2023-06-22T06:22:02;98568.30;;;27.26;58.04
76815;BME280;65768;49.906;19.384;2023-06-22T06:24:31;98566.44;;;27.13;59.21
76815;BME280;65768;49.906;19.384;2023-06-22T06:26:59;98569.55;;;27.09;58.73
76815;BME280;65768;49.906;19.384;2023-06-22T06:29:27;98569.29;;;26.98;59.51
76815;BME280;65768;49.906;19.384;2023-06-22T06:31:55;98569.02;;;27.35;58.91
76815;BME280;65768;49.906;19.384;2023-06-22T06:34:24;98567.05;;;27.61;57.88
76815;BME280;65768;49.906;19.384;2023-06-22T06:36:53;98568.00;;;27.66;57.27
76815;BME280;65768;49.906;19.384;2023-06-22T06:39:21;98568.54;;;27.31;57.66
76815;BME280;65768;49.906;19.384;2023-06-22T06:41:49;98571.10;;;26.95;58.55
76815;BME280;65768;49.906;19.384;2023-06-22T06:44:17;98572.39;;;27.24;58.57
76815;BME280;65768;49.906;19.384;2023-06-22T06:46:45;98571.56;;;27.69;57.35
76815;BME280;65768;49.906;19.384;2023-06-22T06:49:17;98570.38;;;27.39;57.77
76815;BME280;65768;49.906;19.384;2023-06-22T06:51:47;98565.70;;;27.68;57.78
76815;BME280;65768;49.906;19.384;2023-06-22T06:54:17;98568.00;;;27.88;57.03
76815;BME280;65768;49.906;19.384;2023-06-22T06:56:50;98565.77;;;27.92;57.02
76815;BME280;65768;49.906;19.384;2023-06-22T06:59:21;98562.00;;;28.09;56.33
76815;BME280;65768;49.906;19.384;2023-06-22T07:01:51;98555.58;;;28.27;55.81
76815;BME280;65768;49.906;19.384;2023-06-22T07:04:21;98551.20;;;28.61;55.27
76815;BME280;65768;49.906;19.384;2023-06-22T07:06:51;98552.33;;;28.28;55.80
76815;BME280;65768;49.906;19.384;2023-06-22T07:09:22;98550.01;;;28.73;55.20
76815;BME280;65768;49.906;19.384;2023-06-22T07:11:51;98546.73;;;28.92;54.17
76815;BME280;65768;49.906;19.384;2023-06-22T07:14:22;98551.80;;;28.70;53.98
76815;BME280;65768;49.906;19.384;2023-06-22T07:16:54;98551.23;;;28.84;53.72
76815;BME280;65768;49.906;19.384;2023-06-22T07:19:26;98553.27;;;28.91;53.08
76815;BME280;65768;49.906;19.384;2023-06-22T07:21:59;98552.99;;;29.13;53.24
76815;BME280;65768;49.906;19.384;2023-06-22T07:24:32;98548.83;;;29.47;52.29
76815;BME280;65768;49.906;19.384;2023-06-22T07:27:02;98559.00;;;29.55;52.82
76815;BME280;65768;49.906;19.384;2023-06-22T07:29:33;98558.75;;;28.84;53.73
76815;BME280;65768;49.906;19.384;2023-06-22T07:32:03;98554.85;;;29.07;53.56
76815;BME280;65768;49.906;19.384;2023-06-22T07:34:34;98553.25;;;29.04;53.61
76815;BME280;65768;49.906;19.384;2023-06-22T07:37:04;98560.14;;;29.19;52.55
76815;BME280;65768;49.906;19.384;2023-06-22T07:39:33;98565.73;;;29.36;52.23
76815;BME280;65768;49.906;19.384;2023-06-22T07:42:02;98561.63;;;29.26;52.02
76815;BME280;65768;49.906;19.384;2023-06-22T07:44:30;98569.80;;;29.57;51.76
76815;BME280;65768;49.906;19.384;2023-06-22T07:46:59;98564.45;;;30.21;50.24
76815;BME280;65768;49.906;19.384;2023-06-22T07:49:27;98572.73;;;29.62;51.01
76815;BME280;65768;49.906;19.384;2023-06-22T07:51:55;98574.35;;;29.61;51.12
76815;BME280;65768;49.906;19.384;2023-06-22T07:54:23;98576.63;;;29.88;50.63
76815;BME280;65768;49.906;19.384;2023-06-22T07:56:52;98578.46;;;30.14;50.35
76815;BME280;65768;49.906;19.384;2023-06-22T07:59:21;98580.52;;;30.25;50.23
76815;BME280;65768;49.906;19.384;2023-06-22T08:01:49;98580.36;;;29.83;50.87
76815;BME280;65768;49.906;19.384;2023-06-22T08:04:17;98583.42;;;30.20;49.97
76815;BME280;65768;49.906;19.384;2023-06-22T08:06:45;98582.56;;;31.17;48.76
76815;BME280;65768;49.906;19.384;2023-06-22T08:09:13;98582.52;;;30.56;48.65
76815;BME280;65768;49.906;19.384;2023-06-22T08:11:41;98584.23;;;30.43;49.25
76815;BME280;65768;49.906;19.384;2023-06-22T08:14:09;98580.17;;;30.33;48.78
76815;BME280;65768;49.906;19.384;2023-06-22T08:16:40;98581.55;;;30.72;48.64
76815;BME280;65768;49.906;19.384;2023-06-22T08:19:09;98581.56;;;30.69;47.71
76815;BME280;65768;49.906;19.384;2023-06-22T08:21:37;98584.01;;;31.03;47.56
76815;BME280;65768;49.906;19.384;2023-06-22T08:24:06;98589.13;;;31.00;46.76
76815;BME280;65768;49.906;19.384;2023-06-22T08:26:35;98589.08;;;30.29;48.10
76815;BME280;65768;49.906;19.384;2023-06-22T08:29:05;98590.67;;;30.12;49.08
76815;BME280;65768;49.906;19.384;2023-06-22T08:31:33;98587.23;;;30.73;47.32
76815;BME280;65768;49.906;19.384;2023-06-22T08:34:02;98591.45;;;30.79;47.07
76815;BME280;65768;49.906;19.384;2023-06-22T08:36:30;98593.30;;;30.73;47.20
76815;BME280;65768;49.906;19.384;2023-06-22T08:39:05;98590.66;;;31.08;48.13
76815;BME280;65768;49.906;19.384;2023-06-22T08:41:33;98592.54;;;31.46;46.18
76815;BME280;65768;49.906;19.384;2023-06-22T08:44:01;98591.80;;;31.67;46.25
76815;BME280;65768;49.906;19.384;2023-06-22T08:46:30;98588.58;;;32.24;44.62
76815;BME280;65768;49.906;19.384;2023-06-22T08:49:00;98588.29;;;32.45;43.77
76815;BME280;65768;49.906;19.384;2023-06-22T08:51:28;98592.67;;;32.38;43.63
76815;BME280;65768;49.906;19.384;2023-06-22T08:53:57;98597.43;;;32.35;43.16
76815;BME280;65768;49.906;19.384;2023-06-22T08:56:27;98589.35;;;32.28;42.40
76815;BME280;65768;49.906;19.384;2023-06-22T08:58:55;98588.58;;;32.64;42.48
76815;BME280;65768;49.906;19.384;2023-06-22T09:01:23;98587.82;;;32.79;41.71
76815;BME280;65768;49.906;19.384;2023-06-22T09:03:51;98588.01;;;32.75;41.37
76815;BME280;65768;49.906;19.384;2023-06-22T09:06:23;98593.05;;;32.16;42.63
76815;BME280;65768;49.906;19.384;2023-06-22T09:08:52;98592.04;;;32.44;42.62
76815;BME280;65768;49.906;19.384;2023-06-22T09:11:20;98597.60;;;32.44;40.32
76815;BME280;65768;49.906;19.384;2023-06-22T09:13:48;98597.02;;;32.27;41.24
76815;BME280;65768;49.906;19.384;2023-06-22T09:16:16;98591.52;;;33.01;41.01
76815;BME280;65768;49.906;19.384;2023-06-22T09:18:47;98593.56;;;33.53;39.99
76815;BME280;65768;49.906;19.384;2023-06-22T09:21:15;98594.23;;;33.43;39.11
76815;BME280;65768;49.906;19.384;2023-06-22T09:23:44;98587.31;;;32.83;40.68
76815;BME280;65768;49.906;19.384;2023-06-22T09:26:14;98585.76;;;33.07;41.74
76815;BME280;65768;49.906;19.384;2023-06-22T09:28:42;98584.31;;;33.86;40.72
76815;BME280;65768;49.906;19.384;2023-06-22T09:31:10;98583.39;;;33.41;40.67
76815;BME280;65768;49.906;19.384;2023-06-22T09:33:40;98578.84;;;34.03;39.58
76815;BME280;65768;49.906;19.384;2023-06-22T09:36:08;98575.88;;;33.95;39.07
76815;BME280;65768;49.906;19.384;2023-06-22T09:38:37;98573.04;;;33.21;39.13
76815;BME280;65768;49.906;19.384;2023-06-22T09:41:05;98571.14;;;33.55;37.80
76815;BME280;65768;49.906;19.384;2023-06-22T09:43:33;98572.48;;;32.94;39.92
76815;BME280;65768;49.906;19.384;2023-06-22T09:46:03;98573.01;;;33.00;39.85
76815;BME280;65768;49.906;19.384;2023-06-22T09:48:31;98567.17;;;32.93;40.12
76815;BME280;65768;49.906;19.384;2023-06-22T09:50:59;98570.24;;;32.10;41.14
76815;BME280;65768;49.906;19.384;2023-06-22T09:53:28;98569.03;;;31.79;42.21
76815;BME280;65768;49.906;19.384;2023-06-22T09:55:56;98569.86;;;32.06;40.84
76815;BME280;65768;49.906;19.384;2023-06-22T09:58:25;98568.48;;;32.28;40.55
76815;BME280;65768;49.906;19.384;2023-06-22T10:00:53;98563.94;;;32.39;40.24
76815;BME280;65768;49.906;19.384;2023-06-22T10:03:22;98559.56;;;32.65;39.53
76815;BME280;65768;49.906;19.384;2023-06-22T10:05:50;98561.86;;;32.93;38.97
76815;BME280;65768;49.906;19.384;2023-06-22T10:08:18;98554.73;;;33.05;38.62
76815;BME280;65768;49.906;19.384;2023-06-22T10:10:46;98548.77;;;32.88;37.73
76815;BME280;65768;49.906;19.384;2023-06-22T10:13:14;98548.88;;;33.51;37.86
76815;BME280;65768;49.906;19.384;2023-06-22T10:15:42;98545.06;;;33.75;37.02
76815;BME280;65768;49.906;19.384;2023-06-22T10:18:13;98548.15;;;33.43;37.74
76815;BME280;65768;49.906;19.384;2023-06-22T10:20:41;98555.07;;;33.95;37.22
76815;BME280;65768;49.906;19.384;2023-06-22T10:23:09;98555.13;;;34.01;36.93
76815;BME280;65768;49.906;19.384;2023-06-22T10:25:37;98551.95;;;33.86;37.78
76815;BME280;65768;49.906;19.384;2023-06-22T10:28:05;98548.76;;;33.40;37.06
76815;BME280;65768;49.906;19.384;2023-06-22T10:30:33;98543.38;;;32.88;37.61
76815;BME280;65768;49.906;19.384;2023-06-22T10:33:01;98538.06;;;32.95;37.90
76815;BME280;65768;49.906;19.384;2023-06-22T10:35:29;98538.11;;;33.36;37.44
76815;BME280;65768;49.906;19.384;2023-06-22T10:37:57;98534.67;;;32.77;38.18
76815;BME280;65768;49.906;19.384;2023-06-22T10:40:26;98538.78;;;33.30;37.69
76815;BME280;65768;49.906;19.384;2023-06-22T10:42:53;98529.44;;;34.24;36.65
76815;BME280;65768;49.906;19.384;2023-06-22T10:45:22;98526.08;;;34.39;35.50
76815;BME280;65768;49.906;19.384;2023-06-22T10:47:49;98526.63;;;34.51;35.27
76815;BME280;65768;49.906;19.384;2023-06-22T10:50:17;98520.55;;;34.62;35.05
76815;BME280;65768;49.906;19.384;2023-06-22T10:52:45;98514.95;;;34.38;35.79
76815;BME280;65768;49.906;19.384;2023-06-22T10:55:13;98510.00;;;33.97;35.81
76815;BME280;65768;49.906;19.384;2023-06-22T10:57:41;98510.23;;;34.01;37.12
76815;BME280;65768;49.906;19.384;2023-06-22T11:00:13;98511.11;;;34.45;36.13
76815;BME280;65768;49.906;19.384;2023-06-22T11:02:41;98512.02;;;34.54;35.19
76815;BME280;65768;49.906;19.384;2023-06-22T11:05:09;98505.45;;;34.22;35.88
76815;BME280;65768;49.906;19.384;2023-06-22T11:07:41;98507.22;;;33.86;36.35
76815;BME280;65768;49.906;19.384;2023-06-22T11:10:10;98505.95;;;34.51;36.03
76815;BME280;65768;49.906;19.384;2023-06-22T11:12:38;98502.27;;;35.11;34.57
76815;BME280;65768;49.906;19.384;2023-06-22T11:15:07;98500.14;;;34.55;36.08
76815;BME280;65768;49.906;19.384;2023-06-22T11:17:36;98495.45;;;33.94;35.53
76815;BME280;65768;49.906;19.384;2023-06-22T11:20:08;98500.42;;;33.83;36.37
76815;BME280;65768;49.906;19.384;2023-06-22T11:22:42;98496.33;;;34.32;35.13
76815;BME280;65768;49.906;19.384;2023-06-22T11:25:10;98496.55;;;34.59;35.14
76815;BME280;65768;49.906;19.384;2023-06-22T11:27:39;98499.05;;;34.90;34.39
76815;BME280;65768;49.906;19.384;2023-06-22T11:30:08;98494.51;;;35.49;33.74
76815;BME280;65768;49.906;19.384;2023-06-22T11:32:36;98493.31;;;35.96;32.72
76815;BME280;65768;49.906;19.384;2023-06-22T11:35:04;98495.08;;;36.38;31.66
76815;BME280;65768;49.906;19.384;2023-06-22T11:37:32;98495.98;;;36.03;32.58
76815;BME280;65768;49.906;19.384;2023-06-22T11:40:01;98499.29;;;34.84;34.55
76815;BME280;65768;49.906;19.384;2023-06-22T11:42:32;98501.04;;;34.96;34.52
76815;BME280;65768;49.906;19.384;2023-06-22T11:45:00;98500.16;;;33.68;35.65
76815;BME280;65768;49.906;19.384;2023-06-22T11:47:29;98505.63;;;33.74;35.59
76815;BME280;65768;49.906;19.384;2023-06-22T11:49:57;98495.77;;;34.52;34.97
76815;BME280;65768;49.906;19.384;2023-06-22T11:52:25;98491.55;;;34.40;34.62
76815;BME280;65768;49.906;19.384;2023-06-22T11:54:55;98492.95;;;34.43;34.11
76815;BME280;65768;49.906;19.384;2023-06-22T11:57:23;98482.16;;;34.65;33.56
76815;BME280;65768;49.906;19.384;2023-06-22T11:59:51;98478.02;;;35.43;33.02
76815;BME280;65768;49.906;19.384;2023-06-22T12:02:18;98477.29;;;35.61;32.97
76815;BME280;65768;49.906;19.384;2023-06-22T12:04:46;98476.02;;;35.80;33.26
76815;BME280;65768;49.906;19.384;2023-06-22T12:07:14;98471.64;;;34.96;33.16
76815;BME280;65768;49.906;19.384;2023-06-22T12:09:44;98468.89;;;34.78;33.88
76815;BME280;65768;49.906;19.384;2023-06-22T12:12:11;98463.70;;;35.52;33.30
76815;BME280;65768;49.906;19.384;2023-06-22T12:14:39;98462.52;;;34.99;33.92
76815;BME280;65768;49.906;19.384;2023-06-22T12:17:07;98460.98;;;35.76;33.31
76815;BME280;65768;49.906;19.384;2023-06-22T12:19:36;98457.20;;;35.76;33.31
76815;BME280;65768;49.906;19.384;2023-06-22T12:22:04;98451.98;;;36.35;32.27
76815;BME280;65768;49.906;19.384;2023-06-22T12:24:32;98452.14;;;36.79;31.97
76815;BME280;65768;49.906;19.384;2023-06-22T12:27:00;98451.38;;;37.02;30.51
76815;BME280;65768;49.906;19.384;2023-06-22T12:29:28;98445.77;;;37.41;29.77
76815;BME280;65768;49.906;19.384;2023-06-22T12:31:55;98441.29;;;37.51;29.18
76815;BME280;65768;49.906;19.384;2023-06-22T12:34:23;98443.31;;;37.58;29.48
76815;BME280;65768;49.906;19.384;2023-06-22T12:36:52;98435.36;;;37.96;28.34
76815;BME280;65768;49.906;19.384;2023-06-22T12:39:22;98434.08;;;37.94;28.27
76815;BME280;65768;49.906;19.384;2023-06-22T12:41:50;98434.14;;;37.57;28.85
76815;BME280;65768;49.906;19.384;2023-06-22T12:44:18;98430.40;;;37.59;28.61
76815;BME280;65768;49.906;19.384;2023-06-22T12:46:46;98430.96;;;37.81;28.69
76815;BME280;65768;49.906;19.384;2023-06-22T12:53:14;98423.77;;;37.28;29.23
76815;BME280;65768;49.906;19.384;2023-06-22T12:55:42;98423.27;;;37.22;29.42
76815;BME280;65768;49.906;19.384;2023-06-22T12:58:10;98419.83;;;36.91;30.69
76815;BME280;65768;49.906;19.384;2023-06-22T13:00:38;98424.14;;;36.28;30.56
76815;BME280;65768;49.906;19.384;2023-06-22T13:03:06;98422.39;;;36.31;30.67
76815;BME280;65768;49.906;19.384;2023-06-22T13:05:35;98419.02;;;37.02;29.60
76815;BME280;65768;49.906;19.384;2023-06-22T13:08:04;98417.16;;;36.45;30.18
76815;BME280;65768;49.906;19.384;2023-06-22T13:10:32;98413.98;;;36.79;30.18